createdAt,value
2018-06-23T00:00:45.462Z,13.60
2018-06-23T00:03:13.054Z,13.60
2018-06-23T00:05:40.680Z,13.60
2018-06-23T00:08:08.822Z,13.60
2018-06-23T00:10:36.464Z,13.70
2018-06-23T00:13:04.336Z,13.60
2018-06-23T00:15:31.955Z,13.60
2018-06-23T00:17:59.612Z,13.60
2018-06-23T00:20:27.238Z,13.50
2018-06-23T00:22:54.814Z,13.50
2018-06-23T00:25:28.161Z,13.50
2018-06-23T00:27:56.033Z,13.50
2018-06-23T00:30:23.693Z,13.50
2018-06-23T00:32:51.633Z,13.50
2018-06-23T00:35:19.313Z,13.50
2018-06-23T00:37:47.129Z,13.50
2018-06-23T00:40:14.783Z,13.50
2018-06-23T00:42:42.385Z,13.50
2018-06-23T00:45:10.189Z,13.40
2018-06-23T00:47:37.885Z,13.50
2018-06-23T00:50:05.552Z,13.40
2018-06-23T00:52:33.163Z,13.40
2018-06-23T00:55:01.714Z,13.40
2018-06-23T00:57:29.345Z,13.40
2018-06-23T00:59:56.886Z,13.40
2018-06-23T01:02:24.613Z,13.40
2018-06-23T01:07:19.813Z,13.30
2018-06-23T01:09:47.456Z,13.30
2018-06-23T01:12:15.062Z,13.30
2018-06-23T01:14:42.628Z,13.30
2018-06-23T01:17:10.971Z,13.20
2018-06-23T01:19:38.522Z,13.20
2018-06-23T01:22:06.183Z,13.20
2018-06-23T01:24:33.826Z,13.20
2018-06-23T01:27:01.496Z,13.20
2018-06-23T01:29:29.096Z,13.20
2018-06-23T01:31:56.706Z,13.10
2018-06-23T01:34:24.310Z,13.10
2018-06-23T01:36:52.232Z,13.10
2018-06-23T01:39:19.981Z,13.10
2018-06-23T01:41:47.738Z,13.10
2018-06-23T01:44:15.606Z,13.00
2018-06-23T01:46:43.509Z,13.00
2018-06-23T01:49:11.340Z,13.00
2018-06-23T01:51:39.052Z,13.00
2018-06-23T01:54:06.954Z,13.00
2018-06-23T01:56:34.542Z,13.00
2018-06-23T01:59:03.276Z,13.00
2018-06-23T02:01:31.096Z,13.00
2018-06-23T02:03:58.766Z,13.00
2018-06-23T02:06:26.360Z,12.90
2018-06-23T02:08:54.002Z,12.90
2018-06-23T02:11:21.808Z,12.80
2018-06-23T02:13:54.021Z,12.70
2018-06-23T02:16:27.424Z,12.60
2018-06-23T02:20:04.006Z,12.50
2018-06-23T02:22:37.496Z,12.50
2018-06-23T02:25:10.867Z,12.50
2018-06-23T02:27:44.203Z,12.50
2018-06-23T02:30:17.625Z,12.40
2018-06-23T02:32:47.337Z,12.40
2018-06-23T02:35:14.889Z,12.40
2018-06-23T02:37:42.492Z,12.40
2018-06-23T02:40:10.256Z,12.40
2018-06-23T02:42:37.922Z,12.40
2018-06-23T02:45:06.242Z,12.40
2018-06-23T02:47:33.800Z,12.40
2018-06-23T02:50:01.399Z,12.40
2018-06-23T02:52:30.364Z,12.40
2018-06-23T02:54:58.070Z,12.40
2018-06-23T02:57:25.657Z,12.40
2018-06-23T02:59:53.295Z,12.40
2018-06-23T03:02:21.019Z,12.40
2018-06-23T03:04:48.633Z,12.40
2018-06-23T03:07:16.533Z,12.30
2018-06-23T03:09:44.106Z,12.30
2018-06-23T03:12:11.687Z,12.30
2018-06-23T03:14:39.255Z,12.30
2018-06-23T03:17:11.481Z,12.30
2018-06-23T03:19:39.059Z,12.30
2018-06-23T03:22:06.638Z,12.30
2018-06-23T03:24:34.241Z,12.30
2018-06-23T03:27:01.912Z,12.30
2018-06-23T03:29:29.517Z,12.30
2018-06-23T03:31:57.106Z,12.30
2018-06-23T03:34:24.718Z,12.30
2018-06-23T03:36:52.278Z,12.40
2018-06-23T03:39:19.830Z,12.40
2018-06-23T03:41:47.609Z,12.40
2018-06-23T03:44:15.187Z,12.40
2018-06-23T03:46:42.751Z,12.50
2018-06-23T03:49:10.322Z,12.50
2018-06-23T03:51:37.922Z,12.40
2018-06-23T03:54:05.537Z,12.40
2018-06-23T03:56:33.232Z,12.40
2018-06-23T03:59:00.811Z,12.40
2018-06-23T04:01:28.384Z,12.40
2018-06-23T04:03:56.109Z,12.50
2018-06-23T04:06:23.709Z,12.60
2018-06-23T04:08:51.297Z,12.60
2018-06-23T04:11:18.921Z,12.60
2018-06-23T04:13:46.561Z,12.60
2018-06-23T04:16:14.105Z,12.60
2018-06-23T04:18:50.138Z,12.60
2018-06-23T04:21:17.926Z,12.70
2018-06-23T04:23:45.519Z,12.80
2018-06-23T04:26:13.194Z,12.80
2018-06-23T04:28:40.831Z,12.80
2018-06-23T04:31:08.651Z,12.90
2018-06-23T04:33:36.370Z,13.00
2018-06-23T04:36:03.946Z,13.10
2018-06-23T04:38:31.504Z,13.20
2018-06-23T04:40:59.166Z,13.30
2018-06-23T04:43:26.741Z,13.40
2018-06-23T04:45:54.296Z,13.50
2018-06-23T04:48:21.920Z,13.60
2018-06-23T04:50:49.560Z,13.80
2018-06-23T04:53:17.120Z,13.90
2018-06-23T04:55:44.860Z,14.10
2018-06-23T04:58:12.479Z,14.20
2018-06-23T05:00:40.023Z,14.40
2018-06-23T05:03:07.620Z,14.50
2018-06-23T05:05:35.254Z,14.60
2018-06-23T05:08:02.923Z,14.80
2018-06-23T05:10:30.558Z,14.90
2018-06-23T05:12:58.164Z,15.10
2018-06-23T05:15:25.742Z,15.30
2018-06-23T05:17:53.356Z,15.50
2018-06-23T05:20:21.051Z,15.60
2018-06-23T05:22:48.492Z,15.70
2018-06-23T05:25:16.114Z,15.90
2018-06-23T05:27:43.804Z,16.30
2018-06-23T05:30:11.429Z,16.40
2018-06-23T05:32:39.074Z,16.50
2018-06-23T05:35:06.749Z,16.50
2018-06-23T05:37:34.432Z,16.50
2018-06-23T05:40:02.027Z,16.60
2018-06-23T05:42:29.667Z,16.60
2018-06-23T05:44:57.271Z,16.70
2018-06-23T05:47:24.891Z,16.60
2018-06-23T05:49:52.773Z,16.60
2018-06-23T05:52:20.799Z,16.60
2018-06-23T05:54:48.431Z,16.70
2018-06-23T05:57:16.011Z,16.70
2018-06-23T05:59:43.564Z,16.90
2018-06-23T06:02:11.770Z,17.10
2018-06-23T06:04:39.384Z,17.30
2018-06-23T06:07:07.021Z,17.50
2018-06-23T06:09:34.590Z,17.70
2018-06-23T06:12:02.297Z,17.80
2018-06-23T06:14:29.859Z,17.80
2018-06-23T06:17:30.241Z,17.80
2018-06-23T06:19:59.076Z,17.90
2018-06-23T06:24:56.701Z,18.40
2018-06-23T06:27:24.284Z,18.50
2018-06-23T06:29:52.744Z,18.70
2018-06-23T06:32:20.392Z,18.80
2018-06-23T06:34:48.142Z,18.80
2018-06-23T06:37:15.715Z,18.90
2018-06-23T06:39:43.811Z,19.00
2018-06-23T06:42:11.509Z,19.10
2018-06-23T06:44:39.123Z,19.20
2018-06-23T06:47:06.865Z,19.30
2018-06-23T06:49:34.465Z,19.40
2018-06-23T06:52:02.161Z,19.50
2018-06-23T06:54:29.771Z,19.90
2018-06-23T06:56:57.329Z,20.40
2018-06-23T06:59:24.876Z,21.10
2018-06-23T07:01:52.452Z,21.70
2018-06-23T07:04:20.307Z,22.40
2018-06-23T07:06:48.369Z,23.50
2018-06-23T07:09:16.004Z,24.70
2018-06-23T07:11:44.197Z,25.60
2018-06-23T07:14:11.805Z,26.40
2018-06-23T07:16:40.265Z,26.80
2018-06-23T07:19:08.149Z,27.10
2018-06-23T07:21:35.719Z,27.90
2018-06-23T07:24:04.643Z,28.90
2018-06-23T07:26:32.826Z,29.60
2018-06-23T07:31:27.989Z,31.60
2018-06-23T07:33:55.571Z,31.90
2018-06-23T07:36:23.262Z,32.50
2018-06-23T07:38:50.885Z,33.20
2018-06-23T07:41:18.516Z,33.50
2018-06-23T07:43:46.576Z,33.60
2018-06-23T07:46:14.723Z,33.20
2018-06-23T07:51:10.056Z,32.80
2018-06-23T07:53:37.821Z,33.30
2018-06-23T07:56:05.818Z,34.50
2018-06-23T07:58:33.399Z,36.00
2018-06-23T08:01:01.350Z,36.00
2018-06-23T08:03:28.930Z,36.00
2018-06-23T08:05:56.674Z,35.80
2018-06-23T08:08:24.278Z,35.50
2018-06-23T08:10:51.856Z,35.00
2018-06-23T08:13:19.497Z,35.20
2018-06-23T08:15:47.146Z,36.60
2018-06-23T08:18:14.755Z,38.70
2018-06-23T08:20:42.349Z,40.40
2018-06-23T08:23:09.956Z,41.90
2018-06-23T08:25:37.691Z,41.40
2018-06-23T08:28:05.612Z,40.00
2018-06-23T08:30:34.584Z,37.70
2018-06-23T08:33:04.543Z,35.30
2018-06-23T08:35:32.192Z,33.50
2018-06-23T08:37:59.835Z,31.70
2018-06-23T08:40:27.442Z,30.60
2018-06-23T08:42:55.082Z,29.70
2018-06-23T08:45:22.695Z,29.10
2018-06-23T08:47:50.272Z,28.70
2018-06-23T08:50:17.845Z,28.50
2018-06-23T08:52:45.462Z,29.80
2018-06-23T08:55:13.235Z,30.80
2018-06-23T08:57:40.946Z,31.30
2018-06-23T09:00:08.994Z,31.20
2018-06-23T09:02:36.707Z,30.00
2018-06-23T09:05:04.391Z,28.70
2018-06-23T09:07:32.049Z,27.80
2018-06-23T09:09:59.682Z,27.20
2018-06-23T09:12:27.428Z,26.50
2018-06-23T09:14:55.290Z,26.00
2018-06-23T09:17:22.857Z,25.40
2018-06-23T09:19:50.409Z,25.00
2018-06-23T09:22:18.111Z,25.00
2018-06-23T09:24:45.694Z,25.00
2018-06-23T09:27:13.320Z,25.10
2018-06-23T09:29:40.891Z,25.30
2018-06-23T09:32:08.769Z,25.20
2018-06-23T09:34:36.453Z,25.10
2018-06-23T09:37:04.233Z,25.00
2018-06-23T09:39:31.797Z,24.90
2018-06-23T09:44:27.021Z,24.80
2018-06-23T09:46:54.827Z,24.70
2018-06-23T09:49:22.743Z,24.90
2018-06-23T09:51:50.369Z,25.00
2018-06-23T09:54:18.014Z,25.20
2018-06-23T09:56:45.769Z,25.30
2018-06-23T09:59:13.409Z,25.50
2018-06-23T10:01:41.019Z,25.30
2018-06-23T10:04:08.649Z,25.10
2018-06-23T10:06:36.271Z,25.10
2018-06-23T10:09:06.845Z,25.10
2018-06-23T10:11:34.688Z,25.10
2018-06-23T10:14:02.893Z,24.90
2018-06-23T10:16:30.494Z,24.60
2018-06-23T10:18:58.128Z,24.50
2018-06-23T10:21:25.775Z,24.30
2018-06-23T10:23:53.435Z,24.20
2018-06-23T10:26:21.014Z,24.00
2018-06-23T10:28:48.827Z,23.80
2018-06-23T10:31:16.549Z,23.70
2018-06-23T10:33:44.372Z,23.50
2018-06-23T10:36:12.212Z,23.50
2018-06-23T10:38:40.095Z,23.40
2018-06-23T10:41:07.774Z,23.40
2018-06-23T10:43:35.487Z,23.40
2018-06-23T10:48:30.739Z,23.20
2018-06-23T10:50:58.376Z,23.20
2018-06-23T10:53:26.303Z,23.20
2018-06-23T10:55:54.265Z,23.10
2018-06-23T10:58:21.967Z,22.90
2018-06-23T11:00:49.569Z,22.80
2018-06-23T11:03:17.134Z,22.80
2018-06-23T11:05:44.938Z,22.80
2018-06-23T11:08:12.549Z,22.80
2018-06-23T11:10:40.204Z,22.80
2018-06-23T11:13:07.826Z,22.70
2018-06-23T11:15:35.376Z,22.60
2018-06-23T11:18:03.186Z,22.40
2018-06-23T11:20:30.837Z,22.20
2018-06-23T11:22:58.458Z,22.00
2018-06-23T11:25:26.154Z,21.90
2018-06-23T11:27:54.014Z,22.00
2018-06-23T11:30:21.614Z,22.20
2018-06-23T11:32:49.460Z,22.40
2018-06-23T11:35:17.093Z,22.50
2018-06-23T11:37:44.706Z,22.60
2018-06-23T11:40:12.315Z,22.60
2018-06-23T11:42:40.002Z,22.50
2018-06-23T11:45:07.616Z,22.30
2018-06-23T11:47:35.202Z,22.10
2018-06-23T11:50:02.939Z,22.10
2018-06-23T11:52:30.535Z,22.00
2018-06-23T11:54:58.097Z,21.90
2018-06-23T11:57:25.753Z,21.90
2018-06-23T11:59:53.348Z,21.90
2018-06-23T12:02:20.942Z,21.80
2018-06-23T12:04:48.526Z,21.80
2018-06-23T12:07:16.112Z,21.90
2018-06-23T12:09:43.710Z,22.00
2018-06-23T12:12:11.417Z,22.10
2018-06-23T12:14:38.993Z,22.30
2018-06-23T12:17:06.742Z,22.50
2018-06-23T12:19:34.364Z,22.60
2018-06-23T12:24:29.636Z,22.90
2018-06-23T12:26:57.346Z,23.10
2018-06-23T12:29:25.009Z,23.20
2018-06-23T12:31:52.598Z,23.10
2018-06-23T12:34:20.214Z,23.00
2018-06-23T12:36:47.816Z,22.90
2018-06-23T12:39:15.417Z,22.80
2018-06-23T12:41:43.101Z,22.80
2018-06-23T12:44:10.730Z,22.80
2018-06-23T12:46:38.748Z,22.70
2018-06-23T12:49:06.365Z,22.70
2018-06-23T12:51:34.165Z,22.70
2018-06-23T12:54:01.766Z,22.60
2018-06-23T12:56:29.378Z,22.50
2018-06-23T12:58:57.045Z,22.20
2018-06-23T13:01:24.654Z,21.90
2018-06-23T13:03:52.288Z,21.60
2018-06-23T13:06:20.026Z,21.30
2018-06-23T13:08:47.634Z,21.30
2018-06-23T13:11:15.246Z,21.40
2018-06-23T13:13:42.854Z,21.40
2018-06-23T13:16:10.754Z,21.50
2018-06-23T13:18:38.574Z,21.50
2018-06-23T13:21:06.166Z,21.70
2018-06-23T13:23:33.778Z,21.90
2018-06-23T13:26:01.371Z,22.10
2018-06-23T13:28:29.018Z,22.20
2018-06-23T13:30:56.698Z,22.20
2018-06-23T13:33:24.332Z,22.10
2018-06-23T13:38:19.513Z,22.10
2018-06-23T13:43:14.631Z,22.20
2018-06-23T13:45:42.222Z,22.30
2018-06-23T13:48:09.842Z,22.30
2018-06-23T13:50:37.444Z,22.30
2018-06-23T13:53:05.078Z,22.20
2018-06-23T13:55:32.764Z,22.20
2018-06-23T13:58:00.366Z,22.20
2018-06-23T14:00:28.018Z,22.20
2018-06-23T14:02:55.687Z,22.20
2018-06-23T14:05:23.422Z,22.30
2018-06-23T14:07:51.019Z,22.30
2018-06-23T14:10:18.636Z,22.30
2018-06-23T14:12:46.258Z,22.40
2018-06-23T14:15:13.818Z,22.40
2018-06-23T14:17:41.495Z,22.40
2018-06-23T14:22:36.730Z,22.20
2018-06-23T14:25:04.392Z,22.30
2018-06-23T14:27:32.050Z,22.20
2018-06-23T14:32:27.260Z,22.00
2018-06-23T14:34:54.854Z,21.80
2018-06-23T14:37:22.455Z,21.70
2018-06-23T14:39:50.019Z,21.60
2018-06-23T14:42:17.634Z,21.50
2018-06-23T14:44:45.208Z,21.30
2018-06-23T14:49:40.431Z,21.30
2018-06-23T14:52:08.393Z,21.40
2018-06-23T14:54:36.563Z,21.50
2018-06-23T14:57:04.634Z,21.40
2018-06-23T14:59:32.234Z,21.40
2018-06-23T15:01:59.849Z,21.40
2018-06-23T15:04:27.494Z,21.40
2018-06-23T15:06:55.489Z,21.40
2018-06-23T15:09:34.788Z,21.40
2018-06-23T15:13:13.329Z,21.30
2018-06-23T15:15:40.933Z,21.10
2018-06-23T15:18:08.531Z,21.00
2018-06-23T15:20:36.199Z,20.90
2018-06-23T15:23:03.961Z,20.80
2018-06-23T15:25:31.782Z,20.80
2018-06-23T15:27:59.405Z,20.80
2018-06-23T15:30:27.049Z,20.80
2018-06-23T15:32:55.753Z,20.90
2018-06-23T15:35:23.360Z,20.90
2018-06-23T15:37:51.244Z,20.90
2018-06-23T15:40:18.838Z,20.90
2018-06-23T15:42:46.772Z,20.90
2018-06-23T15:47:42.150Z,21.10
2018-06-23T15:50:09.780Z,21.20
2018-06-23T15:52:37.587Z,21.20
2018-06-23T15:55:05.496Z,21.20
2018-06-23T15:57:33.050Z,21.30
2018-06-23T16:00:00.766Z,21.20
2018-06-23T16:02:28.769Z,21.10
2018-06-23T16:04:56.477Z,21.10
2018-06-23T16:07:24.130Z,20.90
2018-06-23T16:09:51.726Z,20.80
2018-06-23T16:12:19.325Z,20.80
2018-06-23T16:14:47.068Z,20.70
2018-06-23T16:17:14.642Z,20.60
2018-06-23T16:19:42.256Z,20.60
2018-06-23T16:22:10.412Z,20.60
2018-06-23T16:24:38.071Z,20.60
2018-06-23T16:27:05.636Z,20.60
2018-06-23T16:29:33.230Z,20.60
2018-06-23T16:32:00.794Z,20.50
2018-06-23T16:34:28.574Z,20.30
2018-06-23T16:36:56.141Z,20.30
2018-06-23T16:39:23.686Z,20.30
2018-06-23T16:41:51.243Z,20.30
2018-06-23T16:44:18.835Z,20.20
2018-06-23T16:46:46.508Z,20.30
2018-06-23T16:49:14.227Z,20.30
2018-06-23T16:51:41.906Z,20.30
2018-06-23T16:54:09.506Z,20.40
2018-06-23T16:56:37.320Z,20.50
2018-06-23T16:59:04.924Z,20.60
2018-06-23T17:01:32.470Z,20.70
2018-06-23T17:04:00.050Z,20.70
2018-06-23T17:06:27.714Z,20.60
2018-06-23T17:08:55.293Z,20.60
2018-06-23T17:11:22.915Z,20.50
2018-06-23T17:13:50.488Z,20.40
2018-06-23T17:16:18.104Z,20.30
2018-06-23T17:18:45.775Z,20.30
2018-06-23T17:21:13.448Z,20.20
2018-06-23T17:23:41.146Z,20.20
2018-06-23T17:26:08.792Z,20.10
2018-06-23T17:28:36.406Z,20.10
2018-06-23T17:31:04.016Z,20.10
2018-06-23T17:33:31.624Z,20.10
2018-06-23T17:35:59.226Z,20.10
2018-06-23T17:38:26.880Z,20.00
2018-06-23T17:40:54.518Z,19.90
2018-06-23T17:43:22.124Z,19.80
2018-06-23T17:45:49.826Z,19.80
2018-06-23T17:48:17.422Z,19.70
2018-06-23T17:50:45.083Z,19.60
2018-06-23T17:53:12.814Z,19.50
2018-06-23T17:55:40.410Z,19.50
2018-06-23T17:58:08.136Z,19.50
2018-06-23T18:00:35.723Z,19.40
2018-06-23T18:03:03.579Z,19.30
2018-06-23T18:05:31.174Z,19.20
2018-06-23T18:07:58.834Z,19.20
2018-06-23T18:10:26.530Z,19.10
2018-06-23T18:12:54.125Z,19.00
2018-06-23T18:15:21.760Z,18.90
2018-06-23T18:17:49.374Z,18.80
2018-06-23T18:20:16.976Z,18.80
2018-06-23T18:22:44.556Z,18.70
2018-06-23T18:25:12.134Z,18.60
2018-06-23T18:27:40.530Z,18.60
2018-06-23T18:30:08.168Z,18.60
2018-06-23T18:32:35.746Z,18.60
2018-06-23T18:35:03.420Z,18.60
2018-06-23T18:37:31.012Z,18.70
2018-06-23T18:39:58.836Z,18.60
2018-06-23T18:42:27.162Z,18.60
2018-06-23T18:44:54.772Z,18.50
2018-06-23T18:47:29.367Z,18.40
2018-06-23T18:49:57.133Z,18.40
2018-06-23T18:52:24.735Z,18.30
2018-06-23T18:54:52.393Z,18.30
2018-06-23T18:57:20.042Z,18.30
2018-06-23T18:59:47.701Z,18.20
2018-06-23T19:02:15.457Z,18.10
2018-06-23T19:04:43.220Z,18.00
2018-06-23T19:07:11.224Z,17.90
2018-06-23T19:09:38.934Z,17.80
2018-06-23T19:12:06.745Z,17.80
2018-06-23T19:14:34.818Z,17.80
2018-06-23T19:17:02.574Z,17.70
2018-06-23T19:19:30.205Z,17.60
2018-06-23T19:21:57.818Z,17.60
2018-06-23T19:24:25.513Z,17.50
2018-06-23T19:26:53.216Z,17.50
2018-06-23T19:29:20.922Z,17.50
2018-06-23T19:31:48.669Z,17.40
2018-06-23T19:34:16.400Z,17.30
2018-06-23T19:36:44.252Z,17.30
2018-06-23T19:39:11.928Z,17.20
2018-06-23T19:41:39.612Z,17.10
2018-06-23T19:44:07.530Z,17.10
2018-06-23T19:46:35.631Z,17.00
2018-06-23T19:49:03.281Z,16.90
2018-06-23T19:51:30.950Z,16.80
2018-06-23T19:53:58.804Z,16.80
2018-06-23T19:56:26.428Z,16.70
2018-06-23T20:01:21.846Z,16.70
2018-06-23T20:03:49.654Z,16.60
2018-06-23T20:06:17.274Z,16.50
2018-06-23T20:08:44.899Z,16.50
2018-06-23T20:11:12.535Z,16.40
2018-06-23T20:13:40.105Z,16.40
2018-06-23T20:16:07.747Z,16.40
2018-06-23T20:18:35.326Z,16.30
2018-06-23T20:21:02.972Z,16.30
2018-06-23T20:23:30.702Z,16.30
2018-06-23T20:25:58.260Z,16.30
2018-06-23T20:28:25.859Z,16.30
2018-06-23T20:30:53.490Z,16.30
2018-06-23T20:33:21.060Z,16.30
2018-06-23T20:35:48.627Z,16.30
2018-06-23T20:38:16.416Z,16.30
2018-06-23T20:40:44.058Z,16.30
2018-06-23T20:43:11.709Z,16.20
2018-06-23T20:45:39.324Z,16.10
2018-06-23T20:48:07.747Z,16.10
2018-06-23T20:50:35.582Z,16.10
2018-06-23T20:53:03.257Z,16.00
2018-06-23T20:55:30.850Z,15.90
2018-06-23T20:57:58.419Z,15.90
2018-06-23T21:00:26.097Z,15.90
2018-06-23T21:02:53.726Z,15.90
2018-06-23T21:05:21.344Z,15.90
2018-06-23T21:07:48.978Z,15.80
2018-06-23T21:10:28.300Z,15.90
2018-06-23T21:12:55.934Z,15.90
2018-06-23T21:15:23.501Z,15.80
2018-06-23T21:20:18.693Z,15.70
2018-06-23T21:22:46.405Z,15.70
2018-06-23T21:25:14.015Z,15.70
2018-06-23T21:27:41.706Z,15.60
2018-06-23T21:30:09.416Z,15.60
2018-06-23T21:32:38.161Z,15.50
2018-06-23T21:35:05.807Z,15.50
2018-06-23T21:37:33.466Z,15.50
2018-06-23T21:40:01.120Z,15.50
2018-06-23T21:42:29.223Z,15.50
2018-06-23T21:44:56.816Z,15.40
2018-06-23T21:47:24.760Z,15.40
2018-06-23T21:49:52.608Z,15.30
2018-06-23T21:52:20.362Z,15.30
2018-06-23T21:54:47.989Z,15.20
2018-06-23T21:57:15.737Z,15.20
2018-06-23T21:59:43.389Z,15.10
2018-06-23T22:02:10.977Z,15.10
2018-06-23T22:04:38.660Z,15.10
2018-06-23T22:07:06.376Z,15.00
2018-06-23T22:09:34.033Z,15.00
2018-06-23T22:12:01.668Z,15.00
2018-06-23T22:14:29.393Z,14.90
2018-06-23T22:16:57.033Z,14.90
2018-06-23T22:19:24.690Z,14.90
2018-06-23T22:21:52.302Z,14.80
2018-06-23T22:24:19.937Z,14.80
2018-06-23T22:26:47.579Z,14.80
2018-06-23T22:29:15.309Z,14.80
2018-06-23T22:31:42.929Z,14.80
2018-06-23T22:34:10.617Z,14.80
2018-06-23T22:36:38.272Z,14.80
2018-06-23T22:39:08.030Z,14.80
2018-06-23T22:41:35.669Z,14.90
2018-06-23T22:44:03.329Z,14.90
2018-06-23T22:46:30.936Z,14.90
2018-06-23T22:48:58.606Z,14.90
2018-06-23T22:51:26.193Z,15.00
2018-06-23T22:53:53.796Z,15.00
2018-06-23T22:56:21.449Z,15.00
2018-06-23T22:58:49.141Z,15.00
2018-06-23T23:01:16.751Z,15.00
2018-06-23T23:03:44.413Z,15.00
2018-06-23T23:08:39.573Z,15.10
2018-06-23T23:11:07.288Z,15.20
2018-06-23T23:13:34.873Z,15.20
2018-06-23T23:16:02.693Z,15.20
2018-06-23T23:21:04.986Z,15.30
2018-06-23T23:23:32.598Z,15.30
2018-06-23T23:26:00.278Z,15.40
2018-06-23T23:28:27.928Z,15.40
2018-06-23T23:30:55.848Z,15.40
2018-06-23T23:33:24.386Z,15.50
2018-06-23T23:35:52.084Z,15.50
2018-06-23T23:38:19.711Z,15.50
2018-06-23T23:40:47.338Z,15.50
2018-06-23T23:43:14.970Z,15.50
2018-06-23T23:45:42.531Z,15.60
2018-06-23T23:48:10.178Z,15.60
2018-06-23T23:50:37.766Z,15.60
2018-06-23T23:53:05.404Z,15.60
2018-06-23T23:55:33.013Z,15.60
2018-06-23T23:58:00.711Z,15.60
